sensor_id;sensor_type;location;lat;lon;timestamp;temperature;humidity
23231;DHT22;11784;49.818;8.632;2023-05-07T00:00:20;19.30;75.40
23231;DHT22;11784;49.818;8.632;2023-05-07T00:02:46;19.30;76.00
23231;DHT22;11784;49.818;8.632;2023-05-07T00:05:12;19.30;76.50
23231;DHT22;11784;49.818;8.632;2023-05-07T00:07:37;19.30;76.80
23231;DHT22;11784;49.818;8.632;2023-05-07T00:10:04;19.30;76.80
23231;DHT22;11784;49.818;8.632;2023-05-07T00:12:31;19.30;77.40
23231;DHT22;11784;49.818;8.632;2023-05-07T00:14:59;19.30;77.60
23231;DHT22;11784;49.818;8.632;2023-05-07T00:17:24;19.30;77.50
23231;DHT22;11784;49.818;8.632;2023-05-07T00:19:50;19.30;77.40
23231;DHT22;11784;49.818;8.632;2023-05-07T00:22:15;19.30;77.40
23231;DHT22;11784;49.818;8.632;2023-05-07T00:24:41;19.30;77.40
23231;DHT22;11784;49.818;8.632;2023-05-07T00:27:06;19.30;77.30
23231;DHT22;11784;49.818;8.632;2023-05-07T00:29:32;19.30;77.20
23231;DHT22;11784;49.818;8.632;2023-05-07T00:31:57;19.30;77.00
23231;DHT22;11784;49.818;8.632;2023-05-07T00:34:23;19.30;77.40
23231;DHT22;11784;49.818;8.632;2023-05-07T00:36:48;19.30;77.40
23231;DHT22;11784;49.818;8.632;2023-05-07T00:39:14;19.30;77.10
23231;DHT22;11784;49.818;8.632;2023-05-07T00:41:40;19.30;77.70
23231;DHT22;11784;49.818;8.632;2023-05-07T00:44:05;19.30;77.50
23231;DHT22;11784;49.818;8.632;2023-05-07T00:46:32;19.30;77.00
23231;DHT22;11784;49.818;8.632;2023-05-07T00:48:59;19.20;77.10
23231;DHT22;11784;49.818;8.632;2023-05-07T00:51:27;19.20;77.40
23231;DHT22;11784;49.818;8.632;2023-05-07T00:53:53;19.20;77.00
23231;DHT22;11784;49.818;8.632;2023-05-07T00:56:22;19.20;77.20
23231;DHT22;11784;49.818;8.632;2023-05-07T00:58:49;19.20;77.30
23231;DHT22;11784;49.818;8.632;2023-05-07T01:01:14;19.20;77.30
23231;DHT22;11784;49.818;8.632;2023-05-07T01:03:43;19.20;77.00
23231;DHT22;11784;49.818;8.632;2023-05-07T01:06:10;19.10;77.30
23231;DHT22;11784;49.818;8.632;2023-05-07T01:08:38;19.10;77.90
23231;DHT22;11784;49.818;8.632;2023-05-07T01:11:05;19.10;77.60
23231;DHT22;11784;49.818;8.632;2023-05-07T01:13:32;19.00;78.50
23231;DHT22;11784;49.818;8.632;2023-05-07T01:15:58;19.00;78.00
23231;DHT22;11784;49.818;8.632;2023-05-07T01:18:24;19.00;78.40
23231;DHT22;11784;49.818;8.632;2023-05-07T01:20:51;19.00;78.40
23231;DHT22;11784;49.818;8.632;2023-05-07T01:23:18;18.90;78.30
23231;DHT22;11784;49.818;8.632;2023-05-07T01:25:50;18.90;78.50
23231;DHT22;11784;49.818;8.632;2023-05-07T01:28:15;18.90;78.70
23231;DHT22;11784;49.818;8.632;2023-05-07T01:30:42;18.90;78.90
23231;DHT22;11784;49.818;8.632;2023-05-07T01:33:11;18.90;78.80
23231;DHT22;11784;49.818;8.632;2023-05-07T01:35:42;18.80;78.80
23231;DHT22;11784;49.818;8.632;2023-05-07T01:38:08;18.80;78.90
23231;DHT22;11784;49.818;8.632;2023-05-07T01:40:34;18.80;79.10
23231;DHT22;11784;49.818;8.632;2023-05-07T01:43:01;18.80;79.10
23231;DHT22;11784;49.818;8.632;2023-05-07T01:45:28;18.80;79.00
23231;DHT22;11784;49.818;8.632;2023-05-07T01:47:56;18.80;79.50
23231;DHT22;11784;49.818;8.632;2023-05-07T01:50:23;18.80;79.90
23231;DHT22;11784;49.818;8.632;2023-05-07T01:52:50;18.80;79.30
23231;DHT22;11784;49.818;8.632;2023-05-07T01:55:16;18.80;79.70
23231;DHT22;11784;49.818;8.632;2023-05-07T01:57:41;18.80;79.40
23231;DHT22;11784;49.818;8.632;2023-05-07T02:00:07;18.70;79.30
23231;DHT22;11784;49.818;8.632;2023-05-07T02:02:35;18.70;79.50
23231;DHT22;11784;49.818;8.632;2023-05-07T02:05:01;18.70;79.50
23231;DHT22;11784;49.818;8.632;2023-05-07T02:07:27;18.70;79.60
23231;DHT22;11784;49.818;8.632;2023-05-07T02:09:53;18.70;79.70
23231;DHT22;11784;49.818;8.632;2023-05-07T02:12:19;18.70;79.70
23231;DHT22;11784;49.818;8.632;2023-05-07T02:14:44;18.70;79.90
23231;DHT22;11784;49.818;8.632;2023-05-07T02:17:10;18.70;80.60
23231;DHT22;11784;49.818;8.632;2023-05-07T02:19:35;18.70;80.20
23231;DHT22;11784;49.818;8.632;2023-05-07T02:22:01;18.70;80.40
23231;DHT22;11784;49.818;8.632;2023-05-07T02:24:27;18.70;80.40
23231;DHT22;11784;49.818;8.632;2023-05-07T02:26:53;18.60;79.90
23231;DHT22;11784;49.818;8.632;2023-05-07T02:29:18;18.60;80.00
23231;DHT22;11784;49.818;8.632;2023-05-07T02:31:43;18.60;80.10
23231;DHT22;11784;49.818;8.632;2023-05-07T02:34:09;18.60;80.30
23231;DHT22;11784;49.818;8.632;2023-05-07T02:36:34;18.60;80.20
23231;DHT22;11784;49.818;8.632;2023-05-07T02:39:00;18.50;80.70
23231;DHT22;11784;49.818;8.632;2023-05-07T02:41:26;18.50;80.90
23231;DHT22;11784;49.818;8.632;2023-05-07T02:43:53;18.50;80.80
23231;DHT22;11784;49.818;8.632;2023-05-07T02:46:18;18.50;81.10
23231;DHT22;11784;49.818;8.632;2023-05-07T02:48:44;18.50;81.00
23231;DHT22;11784;49.818;8.632;2023-05-07T02:51:10;18.50;80.90
23231;DHT22;11784;49.818;8.632;2023-05-07T02:53:35;18.50;80.80
23231;DHT22;11784;49.818;8.632;2023-05-07T02:56:01;18.50;80.60
23231;DHT22;11784;49.818;8.632;2023-05-07T02:58:27;18.40;80.60
23231;DHT22;11784;49.818;8.632;2023-05-07T03:00:53;18.50;79.80
23231;DHT22;11784;49.818;8.632;2023-05-07T03:03:20;18.40;79.90
23231;DHT22;11784;49.818;8.632;2023-05-07T03:05:46;18.40;79.90
23231;DHT22;11784;49.818;8.632;2023-05-07T03:08:11;18.40;79.50
23231;DHT22;11784;49.818;8.632;2023-05-07T03:10:37;18.50;78.90
23231;DHT22;11784;49.818;8.632;2023-05-07T03:13:03;18.50;79.40
23231;DHT22;11784;49.818;8.632;2023-05-07T03:15:28;18.50;79.00
23231;DHT22;11784;49.818;8.632;2023-05-07T03:17:54;18.50;78.70
23231;DHT22;11784;49.818;8.632;2023-05-07T03:20:19;18.50;78.80
23231;DHT22;11784;49.818;8.632;2023-05-07T03:22:45;18.50;79.00
23231;DHT22;11784;49.818;8.632;2023-05-07T03:25:12;18.50;78.90
23231;DHT22;11784;49.818;8.632;2023-05-07T03:27:38;18.50;78.70
23231;DHT22;11784;49.818;8.632;2023-05-07T03:30:04;18.50;78.90
23231;DHT22;11784;49.818;8.632;2023-05-07T03:32:29;18.50;78.70
23231;DHT22;11784;49.818;8.632;2023-05-07T03:34:55;18.50;78.40
23231;DHT22;11784;49.818;8.632;2023-05-07T03:37:21;18.50;78.10
23231;DHT22;11784;49.818;8.632;2023-05-07T03:39:47;18.60;77.90
23231;DHT22;11784;49.818;8.632;2023-05-07T03:42:12;18.50;77.50
23231;DHT22;11784;49.818;8.632;2023-05-07T03:44:38;18.60;77.20
23231;DHT22;11784;49.818;8.632;2023-05-07T03:47:04;18.60;76.90
23231;DHT22;11784;49.818;8.632;2023-05-07T03:49:29;18.60;76.80
23231;DHT22;11784;49.818;8.632;2023-05-07T03:51:55;18.60;76.70
23231;DHT22;11784;49.818;8.632;2023-05-07T03:54:20;18.60;76.90
23231;DHT22;11784;49.818;8.632;2023-05-07T03:56:46;18.60;76.90
23231;DHT22;11784;49.818;8.632;2023-05-07T03:59:12;18.60;76.40
23231;DHT22;11784;49.818;8.632;2023-05-07T04:01:38;18.60;77.00
23231;DHT22;11784;49.818;8.632;2023-05-07T04:04:04;18.70;76.20
23231;DHT22;11784;49.818;8.632;2023-05-07T04:06:30;18.70;76.10
23231;DHT22;11784;49.818;8.632;2023-05-07T04:08:56;18.60;75.90
23231;DHT22;11784;49.818;8.632;2023-05-07T04:11:21;18.70;76.10
23231;DHT22;11784;49.818;8.632;2023-05-07T04:13:47;18.70;75.90
23231;DHT22;11784;49.818;8.632;2023-05-07T04:16:12;18.70;75.60
23231;DHT22;11784;49.818;8.632;2023-05-07T04:18:38;18.70;75.80
23231;DHT22;11784;49.818;8.632;2023-05-07T04:21:04;18.70;75.80
23231;DHT22;11784;49.818;8.632;2023-05-07T04:23:29;18.70;75.70
23231;DHT22;11784;49.818;8.632;2023-05-07T04:25:55;18.70;75.70
23231;DHT22;11784;49.818;8.632;2023-05-07T04:28:21;18.70;75.70
23231;DHT22;11784;49.818;8.632;2023-05-07T04:30:46;18.70;75.20
23231;DHT22;11784;49.818;8.632;2023-05-07T04:33:14;18.70;75.10
23231;DHT22;11784;49.818;8.632;2023-05-07T04:35:40;18.80;75.00
23231;DHT22;11784;49.818;8.632;2023-05-07T04:38:05;18.70;75.60
23231;DHT22;11784;49.818;8.632;2023-05-07T04:40:30;18.80;75.00
23231;DHT22;11784;49.818;8.632;2023-05-07T04:42:56;18.80;74.70
23231;DHT22;11784;49.818;8.632;2023-05-07T04:45:21;18.80;74.40
23231;DHT22;11784;49.818;8.632;2023-05-07T04:47:47;18.80;74.90
23231;DHT22;11784;49.818;8.632;2023-05-07T04:50:12;18.80;75.00
23231;DHT22;11784;49.818;8.632;2023-05-07T04:52:38;18.80;74.40
23231;DHT22;11784;49.818;8.632;2023-05-07T04:55:04;18.80;74.50
23231;DHT22;11784;49.818;8.632;2023-05-07T04:57:30;18.80;74.60
23231;DHT22;11784;49.818;8.632;2023-05-07T04:59:55;18.80;74.40
23231;DHT22;11784;49.818;8.632;2023-05-07T05:02:20;18.90;74.60
23231;DHT22;11784;49.818;8.632;2023-05-07T05:04:46;18.90;74.50
23231;DHT22;11784;49.818;8.632;2023-05-07T05:07:11;18.90;74.50
23231;DHT22;11784;49.818;8.632;2023-05-07T05:09:37;18.90;74.60
23231;DHT22;11784;49.818;8.632;2023-05-07T05:12:03;19.00;74.40
23231;DHT22;11784;49.818;8.632;2023-05-07T05:14:29;19.00;74.30
23231;DHT22;11784;49.818;8.632;2023-05-07T05:16:54;19.00;74.10
23231;DHT22;11784;49.818;8.632;2023-05-07T05:19:20;19.00;74.00
23231;DHT22;11784;49.818;8.632;2023-05-07T05:21:45;19.10;73.80
23231;DHT22;11784;49.818;8.632;2023-05-07T05:24:11;19.10;73.90
23231;DHT22;11784;49.818;8.632;2023-05-07T05:26:36;19.20;74.00
23231;DHT22;11784;49.818;8.632;2023-05-07T05:29:02;19.20;73.70
23231;DHT22;11784;49.818;8.632;2023-05-07T05:31:27;19.30;73.60
23231;DHT22;11784;49.818;8.632;2023-05-07T05:33:53;19.30;74.30
23231;DHT22;11784;49.818;8.632;2023-05-07T05:36:18;19.40;73.40
23231;DHT22;11784;49.818;8.632;2023-05-07T05:38:44;19.40;73.30
23231;DHT22;11784;49.818;8.632;2023-05-07T05:41:09;19.40;72.70
23231;DHT22;11784;49.818;8.632;2023-05-07T05:43:35;19.50;72.80
23231;DHT22;11784;49.818;8.632;2023-05-07T05:46:01;19.50;72.50
23231;DHT22;11784;49.818;8.632;2023-05-07T05:48:26;19.50;72.10
23231;DHT22;11784;49.818;8.632;2023-05-07T05:50:52;19.60;71.90
23231;DHT22;11784;49.818;8.632;2023-05-07T05:53:17;19.60;71.70
23231;DHT22;11784;49.818;8.632;2023-05-07T05:55:43;19.70;71.90
23231;DHT22;11784;49.818;8.632;2023-05-07T05:58:09;19.70;71.90
23231;DHT22;11784;49.818;8.632;2023-05-07T06:00:34;19.80;71.70
23231;DHT22;11784;49.818;8.632;2023-05-07T06:03:00;19.80;71.50
23231;DHT22;11784;49.818;8.632;2023-05-07T06:05:26;19.90;71.90
23231;DHT22;11784;49.818;8.632;2023-05-07T06:07:51;19.90;72.20
23231;DHT22;11784;49.818;8.632;2023-05-07T06:10:17;20.00;72.30
23231;DHT22;11784;49.818;8.632;2023-05-07T06:12:42;20.00;72.70
23231;DHT22;11784;49.818;8.632;2023-05-07T06:15:08;20.10;71.90
23231;DHT22;11784;49.818;8.632;2023-05-07T06:17:34;20.10;71.50
23231;DHT22;11784;49.818;8.632;2023-05-07T06:19:59;20.10;72.00
23231;DHT22;11784;49.818;8.632;2023-05-07T06:22:25;20.20;71.90
23231;DHT22;11784;49.818;8.632;2023-05-07T06:24:50;20.20;71.90
23231;DHT22;11784;49.818;8.632;2023-05-07T06:27:16;20.20;71.40
23231;DHT22;11784;49.818;8.632;2023-05-07T06:29:41;20.20;71.70
23231;DHT22;11784;49.818;8.632;2023-05-07T06:32:12;20.20;71.20
23231;DHT22;11784;49.818;8.632;2023-05-07T06:34:38;20.30;71.30
23231;DHT22;11784;49.818;8.632;2023-05-07T06:37:04;20.30;71.00
23231;DHT22;11784;49.818;8.632;2023-05-07T06:39:30;20.30;70.70
23231;DHT22;11784;49.818;8.632;2023-05-07T06:41:56;20.30;70.40
23231;DHT22;11784;49.818;8.632;2023-05-07T06:44:21;20.40;70.40
23231;DHT22;11784;49.818;8.632;2023-05-07T06:46:47;20.40;70.40
23231;DHT22;11784;49.818;8.632;2023-05-07T06:49:13;20.40;69.80
23231;DHT22;11784;49.818;8.632;2023-05-07T06:51:39;20.40;69.50
23231;DHT22;11784;49.818;8.632;2023-05-07T06:54:05;20.40;69.50
23231;DHT22;11784;49.818;8.632;2023-05-07T06:56:31;20.50;69.20
23231;DHT22;11784;49.818;8.632;2023-05-07T06:58:57;20.40;69.20
23231;DHT22;11784;49.818;8.632;2023-05-07T07:01:22;20.40;69.00
23231;DHT22;11784;49.818;8.632;2023-05-07T07:03:48;20.40;69.20
23231;DHT22;11784;49.818;8.632;2023-05-07T07:06:14;20.40;69.10
23231;DHT22;11784;49.818;8.632;2023-05-07T07:08:39;20.50;69.40
23231;DHT22;11784;49.818;8.632;2023-05-07T07:11:05;20.50;68.80
23231;DHT22;11784;49.818;8.632;2023-05-07T07:13:31;20.50;68.80
23231;DHT22;11784;49.818;8.632;2023-05-07T07:15:57;20.50;69.10
23231;DHT22;11784;49.818;8.632;2023-05-07T07:18:22;20.60;69.20
23231;DHT22;11784;49.818;8.632;2023-05-07T07:20:48;20.60;69.20
23231;DHT22;11784;49.818;8.632;2023-05-07T07:23:14;20.60;68.60
23231;DHT22;11784;49.818;8.632;2023-05-07T07:25:39;20.70;68.60
23231;DHT22;11784;49.818;8.632;2023-05-07T07:28:05;20.70;68.50
23231;DHT22;11784;49.818;8.632;2023-05-07T07:30:31;20.70;68.30
23231;DHT22;11784;49.818;8.632;2023-05-07T07:32:57;20.80;68.50
23231;DHT22;11784;49.818;8.632;2023-05-07T07:35:28;20.90;68.30
23231;DHT22;11784;49.818;8.632;2023-05-07T07:37:53;20.90;69.00
23231;DHT22;11784;49.818;8.632;2023-05-07T07:40:19;20.90;68.30
23231;DHT22;11784;49.818;8.632;2023-05-07T07:42:44;21.00;67.50
23231;DHT22;11784;49.818;8.632;2023-05-07T07:45:10;21.00;67.60
23231;DHT22;11784;49.818;8.632;2023-05-07T07:47:36;21.10;67.50
23231;DHT22;11784;49.818;8.632;2023-05-07T07:50:01;21.10;67.50
23231;DHT22;11784;49.818;8.632;2023-05-07T07:52:27;21.20;67.50
23231;DHT22;11784;49.818;8.632;2023-05-07T07:54:52;21.20;67.30
23231;DHT22;11784;49.818;8.632;2023-05-07T07:57:18;21.20;66.70
23231;DHT22;11784;49.818;8.632;2023-05-07T07:59:43;21.20;66.70
23231;DHT22;11784;49.818;8.632;2023-05-07T08:02:09;21.20;66.70
23231;DHT22;11784;49.818;8.632;2023-05-07T08:04:34;21.30;66.00
23231;DHT22;11784;49.818;8.632;2023-05-07T08:07:00;21.30;66.00
23231;DHT22;11784;49.818;8.632;2023-05-07T08:09:26;21.40;66.10
23231;DHT22;11784;49.818;8.632;2023-05-07T08:11:51;21.40;65.90
23231;DHT22;11784;49.818;8.632;2023-05-07T08:14:17;21.40;65.70
23231;DHT22;11784;49.818;8.632;2023-05-07T08:16:43;21.40;66.10
23231;DHT22;11784;49.818;8.632;2023-05-07T08:19:08;21.50;65.60
23231;DHT22;11784;49.818;8.632;2023-05-07T08:21:34;21.50;64.80
23231;DHT22;11784;49.818;8.632;2023-05-07T08:23:59;21.50;65.00
23231;DHT22;11784;49.818;8.632;2023-05-07T08:26:25;21.60;64.70
23231;DHT22;11784;49.818;8.632;2023-05-07T08:28:51;21.60;65.00
23231;DHT22;11784;49.818;8.632;2023-05-07T08:31:16;21.60;65.50
23231;DHT22;11784;49.818;8.632;2023-05-07T08:33:42;21.60;65.20
23231;DHT22;11784;49.818;8.632;2023-05-07T08:36:07;21.70;65.10
23231;DHT22;11784;49.818;8.632;2023-05-07T08:38:33;21.70;65.10
23231;DHT22;11784;49.818;8.632;2023-05-07T08:40:58;21.80;65.10
23231;DHT22;11784;49.818;8.632;2023-05-07T08:43:26;21.90;65.20
23231;DHT22;11784;49.818;8.632;2023-05-07T08:45:54;22.00;65.00
23231;DHT22;11784;49.818;8.632;2023-05-07T08:48:22;22.10;64.60
23231;DHT22;11784;49.818;8.632;2023-05-07T08:50:50;22.10;64.20
23231;DHT22;11784;49.818;8.632;2023-05-07T08:53:16;22.30;64.20
23231;DHT22;11784;49.818;8.632;2023-05-07T08:55:42;22.30;63.40
23231;DHT22;11784;49.818;8.632;2023-05-07T08:58:07;22.40;63.60
23231;DHT22;11784;49.818;8.632;2023-05-07T09:00:33;22.50;63.30
23231;DHT22;11784;49.818;8.632;2023-05-07T09:03:00;22.60;63.40
23231;DHT22;11784;49.818;8.632;2023-05-07T09:05:26;22.60;63.60
23231;DHT22;11784;49.818;8.632;2023-05-07T09:07:51;22.70;63.10
23231;DHT22;11784;49.818;8.632;2023-05-07T09:10:17;22.80;62.50
23231;DHT22;11784;49.818;8.632;2023-05-07T09:12:42;22.90;62.40
23231;DHT22;11784;49.818;8.632;2023-05-07T09:15:08;22.90;62.00
23231;DHT22;11784;49.818;8.632;2023-05-07T09:17:34;23.00;61.90
23231;DHT22;11784;49.818;8.632;2023-05-07T09:20:04;23.10;61.40
23231;DHT22;11784;49.818;8.632;2023-05-07T09:22:34;23.10;61.40
23231;DHT22;11784;49.818;8.632;2023-05-07T09:24:59;23.10;61.00
23231;DHT22;11784;49.818;8.632;2023-05-07T09:27:25;23.20;61.00
23231;DHT22;11784;49.818;8.632;2023-05-07T09:29:51;23.20;60.80
23231;DHT22;11784;49.818;8.632;2023-05-07T09:32:17;23.20;60.70
23231;DHT22;11784;49.818;8.632;2023-05-07T09:34:42;23.30;60.50
23231;DHT22;11784;49.818;8.632;2023-05-07T09:37:08;23.40;61.10
23231;DHT22;11784;49.818;8.632;2023-05-07T09:39:48;23.40;60.70
23231;DHT22;11784;49.818;8.632;2023-05-07T09:42:14;23.50;59.90
23231;DHT22;11784;49.818;8.632;2023-05-07T09:44:41;23.50;59.80
23231;DHT22;11784;49.818;8.632;2023-05-07T09:47:08;23.50;59.90
23231;DHT22;11784;49.818;8.632;2023-05-07T09:49:35;23.60;59.90
23231;DHT22;11784;49.818;8.632;2023-05-07T09:52:04;23.60;59.90
23231;DHT22;11784;49.818;8.632;2023-05-07T09:54:32;23.70;61.00
23231;DHT22;11784;49.818;8.632;2023-05-07T09:56:59;23.80;60.00
23231;DHT22;11784;49.818;8.632;2023-05-07T09:59:28;23.90;59.60
23231;DHT22;11784;49.818;8.632;2023-05-07T10:01:57;23.90;59.60
23231;DHT22;11784;49.818;8.632;2023-05-07T10:04:25;23.90;59.60
23231;DHT22;11784;49.818;8.632;2023-05-07T10:06:51;23.90;59.70
23231;DHT22;11784;49.818;8.632;2023-05-07T10:09:16;24.00;59.60
23231;DHT22;11784;49.818;8.632;2023-05-07T10:11:42;24.00;59.30
23231;DHT22;11784;49.818;8.632;2023-05-07T10:14:09;24.00;59.30
23231;DHT22;11784;49.818;8.632;2023-05-07T10:16:36;24.10;59.30
23231;DHT22;11784;49.818;8.632;2023-05-07T10:19:03;24.10;59.10
23231;DHT22;11784;49.818;8.632;2023-05-07T10:21:30;24.10;58.90
23231;DHT22;11784;49.818;8.632;2023-05-07T10:24:04;24.10;58.80
23231;DHT22;11784;49.818;8.632;2023-05-07T10:26:35;24.10;58.70
23231;DHT22;11784;49.818;8.632;2023-05-07T10:32:08;24.00;59.00
23231;DHT22;11784;49.818;8.632;2023-05-07T10:34:40;24.10;59.60
23231;DHT22;11784;49.818;8.632;2023-05-07T10:37:07;24.00;59.60
23231;DHT22;11784;49.818;8.632;2023-05-07T10:39:34;24.00;59.30
23231;DHT22;11784;49.818;8.632;2023-05-07T10:42:13;24.00;59.10
23231;DHT22;11784;49.818;8.632;2023-05-07T10:44:39;24.00;59.00
23231;DHT22;11784;49.818;8.632;2023-05-07T10:47:13;23.90;59.30
23231;DHT22;11784;49.818;8.632;2023-05-07T10:52:18;24.00;59.60
23231;DHT22;11784;49.818;8.632;2023-05-07T10:54:44;24.00;59.40
23231;DHT22;11784;49.818;8.632;2023-05-07T10:57:33;24.10;58.90
23231;DHT22;11784;49.818;8.632;2023-05-07T11:00:01;24.10;59.30
23231;DHT22;11784;49.818;8.632;2023-05-07T11:05:30;24.10;59.50
23231;DHT22;11784;49.818;8.632;2023-05-07T11:07:59;24.20;59.50
23231;DHT22;11784;49.818;8.632;2023-05-07T11:10:54;24.20;59.50
23231;DHT22;11784;49.818;8.632;2023-05-07T11:13:48;24.30;59.30
23231;DHT22;11784;49.818;8.632;2023-05-07T11:16:21;24.40;58.70
23231;DHT22;11784;49.818;8.632;2023-05-07T11:18:49;24.40;58.60
23231;DHT22;11784;49.818;8.632;2023-05-07T11:21:35;24.50;58.30
23231;DHT22;11784;49.818;8.632;2023-05-07T11:24:01;24.50;58.30
23231;DHT22;11784;49.818;8.632;2023-05-07T11:26:29;24.60;58.50
23231;DHT22;11784;49.818;8.632;2023-05-07T11:28:56;24.70;58.50
23231;DHT22;11784;49.818;8.632;2023-05-07T11:31:24;24.70;57.90
23231;DHT22;11784;49.818;8.632;2023-05-07T11:33:52;24.80;57.70
23231;DHT22;11784;49.818;8.632;2023-05-07T11:36:18;24.90;56.80
23231;DHT22;11784;49.818;8.632;2023-05-07T11:38:44;25.00;56.90
23231;DHT22;11784;49.818;8.632;2023-05-07T11:41:09;25.10;56.70
23231;DHT22;11784;49.818;8.632;2023-05-07T11:43:35;25.20;56.60
23231;DHT22;11784;49.818;8.632;2023-05-07T11:46:09;25.30;56.50
23231;DHT22;11784;49.818;8.632;2023-05-07T11:48:35;25.30;56.30
23231;DHT22;11784;49.818;8.632;2023-05-07T11:51:03;25.40;56.50
23231;DHT22;11784;49.818;8.632;2023-05-07T11:53:36;25.50;56.30
23231;DHT22;11784;49.818;8.632;2023-05-07T11:56:09;25.60;56.20
23231;DHT22;11784;49.818;8.632;2023-05-07T11:58:35;25.70;55.20
23231;DHT22;11784;49.818;8.632;2023-05-07T12:01:01;25.90;54.40
23231;DHT22;11784;49.818;8.632;2023-05-07T12:03:27;25.90;54.90
23231;DHT22;11784;49.818;8.632;2023-05-07T12:05:52;26.00;54.50
23231;DHT22;11784;49.818;8.632;2023-05-07T12:08:19;26.10;54.10
23231;DHT22;11784;49.818;8.632;2023-05-07T12:10:46;26.20;53.90
23231;DHT22;11784;49.818;8.632;2023-05-07T12:13:17;26.20;53.80
23231;DHT22;11784;49.818;8.632;2023-05-07T12:15:43;26.20;53.30
23231;DHT22;11784;49.818;8.632;2023-05-07T12:18:09;26.30;53.20
23231;DHT22;11784;49.818;8.632;2023-05-07T12:20:36;26.30;51.80
23231;DHT22;11784;49.818;8.632;2023-05-07T12:23:02;26.30;51.70
23231;DHT22;11784;49.818;8.632;2023-05-07T12:25:32;26.30;52.00
23231;DHT22;11784;49.818;8.632;2023-05-07T12:28:00;26.40;51.80
23231;DHT22;11784;49.818;8.632;2023-05-07T12:30:26;26.50;51.90
23231;DHT22;11784;49.818;8.632;2023-05-07T12:32:55;26.50;51.90
23231;DHT22;11784;49.818;8.632;2023-05-07T12:35:28;26.60;52.10
23231;DHT22;11784;49.818;8.632;2023-05-07T12:37:58;26.70;51.50
23231;DHT22;11784;49.818;8.632;2023-05-07T12:40:35;26.80;51.30
23231;DHT22;11784;49.818;8.632;2023-05-07T12:43:00;26.80;51.30
23231;DHT22;11784;49.818;8.632;2023-05-07T12:45:26;26.80;50.80
23231;DHT22;11784;49.818;8.632;2023-05-07T12:47:52;26.90;50.70
23231;DHT22;11784;49.818;8.632;2023-05-07T12:50:17;27.00;50.80
23231;DHT22;11784;49.818;8.632;2023-05-07T12:52:45;27.00;50.20
23231;DHT22;11784;49.818;8.632;2023-05-07T12:55:13;27.10;50.20
23231;DHT22;11784;49.818;8.632;2023-05-07T12:57:42;27.20;50.20
23231;DHT22;11784;49.818;8.632;2023-05-07T13:00:08;27.30;49.60
23231;DHT22;11784;49.818;8.632;2023-05-07T13:02:38;27.40;49.50
23231;DHT22;11784;49.818;8.632;2023-05-07T13:05:04;27.50;49.00
23231;DHT22;11784;49.818;8.632;2023-05-07T13:07:29;27.60;49.00
23231;DHT22;11784;49.818;8.632;2023-05-07T13:09:55;27.70;48.60
23231;DHT22;11784;49.818;8.632;2023-05-07T13:12:20;27.80;48.70
23231;DHT22;11784;49.818;8.632;2023-05-07T13:14:46;27.90;48.30
23231;DHT22;11784;49.818;8.632;2023-05-07T13:17:11;28.00;48.10
23231;DHT22;11784;49.818;8.632;2023-05-07T13:19:37;28.00;47.50
23231;DHT22;11784;49.818;8.632;2023-05-07T13:22:05;28.10;47.70
23231;DHT22;11784;49.818;8.632;2023-05-07T13:24:30;28.10;47.00
23231;DHT22;11784;49.818;8.632;2023-05-07T13:26:56;28.10;46.80
23231;DHT22;11784;49.818;8.632;2023-05-07T13:29:22;28.00;46.90
23231;DHT22;11784;49.818;8.632;2023-05-07T13:31:54;28.00;46.20
23231;DHT22;11784;49.818;8.632;2023-05-07T13:34:20;27.90;46.70
23231;DHT22;11784;49.818;8.632;2023-05-07T13:36:45;27.90;46.00
23231;DHT22;11784;49.818;8.632;2023-05-07T13:39:11;27.90;45.90
23231;DHT22;11784;49.818;8.632;2023-05-07T13:41:36;28.00;46.20
23231;DHT22;11784;49.818;8.632;2023-05-07T13:44:02;28.10;45.70
23231;DHT22;11784;49.818;8.632;2023-05-07T13:46:27;28.10;45.90
23231;DHT22;11784;49.818;8.632;2023-05-07T13:48:53;28.20;46.00
23231;DHT22;11784;49.818;8.632;2023-05-07T13:51:18;28.40;45.40
23231;DHT22;11784;49.818;8.632;2023-05-07T13:53:44;28.50;44.30
23231;DHT22;11784;49.818;8.632;2023-05-07T13:56:10;28.70;44.80
23231;DHT22;11784;49.818;8.632;2023-05-07T13:58:36;28.80;44.10
23231;DHT22;11784;49.818;8.632;2023-05-07T14:01:01;28.70;43.90
23231;DHT22;11784;49.818;8.632;2023-05-07T14:03:27;28.70;43.90
23231;DHT22;11784;49.818;8.632;2023-05-07T14:05:53;28.60;43.80
23231;DHT22;11784;49.818;8.632;2023-05-07T14:08:18;28.50;43.90
23231;DHT22;11784;49.818;8.632;2023-05-07T14:10:45;28.60;44.00
23231;DHT22;11784;49.818;8.632;2023-05-07T14:13:11;28.60;44.00
23231;DHT22;11784;49.818;8.632;2023-05-07T14:15:37;28.60;43.20
23231;DHT22;11784;49.818;8.632;2023-05-07T14:18:03;28.60;43.20
23231;DHT22;11784;49.818;8.632;2023-05-07T14:20:28;28.60;43.50
23231;DHT22;11784;49.818;8.632;2023-05-07T14:22:56;28.60;43.90
23231;DHT22;11784;49.818;8.632;2023-05-07T14:25:21;28.60;44.20
23231;DHT22;11784;49.818;8.632;2023-05-07T14:27:47;28.40;43.80
23231;DHT22;11784;49.818;8.632;2023-05-07T14:30:12;28.30;43.40
23231;DHT22;11784;49.818;8.632;2023-05-07T14:32:38;28.10;43.40
23231;DHT22;11784;49.818;8.632;2023-05-07T14:35:04;27.90;43.90
23231;DHT22;11784;49.818;8.632;2023-05-07T14:37:29;27.70;43.90
23231;DHT22;11784;49.818;8.632;2023-05-07T14:39:55;27.50;44.10
23231;DHT22;11784;49.818;8.632;2023-05-07T14:42:20;27.30;44.60
23231;DHT22;11784;49.818;8.632;2023-05-07T14:44:46;27.20;45.30
23231;DHT22;11784;49.818;8.632;2023-05-07T14:47:13;27.00;45.90
23231;DHT22;11784;49.818;8.632;2023-05-07T14:49:40;26.80;45.40
23231;DHT22;11784;49.818;8.632;2023-05-07T14:52:06;26.60;45.30
23231;DHT22;11784;49.818;8.632;2023-05-07T14:54:34;26.50;45.90
23231;DHT22;11784;49.818;8.632;2023-05-07T14:57:01;26.30;45.30
23231;DHT22;11784;49.818;8.632;2023-05-07T14:59:26;26.20;46.40
23231;DHT22;11784;49.818;8.632;2023-05-07T15:01:52;26.00;46.80
23231;DHT22;11784;49.818;8.632;2023-05-07T15:04:17;25.90;46.60
23231;DHT22;11784;49.818;8.632;2023-05-07T15:06:43;25.70;46.50
23231;DHT22;11784;49.818;8.632;2023-05-07T15:09:09;25.50;46.70
23231;DHT22;11784;49.818;8.632;2023-05-07T15:11:34;25.40;47.20
23231;DHT22;11784;49.818;8.632;2023-05-07T15:14:00;25.30;48.10
23231;DHT22;11784;49.818;8.632;2023-05-07T15:16:25;25.10;49.00
23231;DHT22;11784;49.818;8.632;2023-05-07T15:18:51;25.00;49.60
23231;DHT22;11784;49.818;8.632;2023-05-07T15:21:17;24.90;49.80
23231;DHT22;11784;49.818;8.632;2023-05-07T15:23:42;24.80;50.10
23231;DHT22;11784;49.818;8.632;2023-05-07T15:26:09;24.60;50.20
23231;DHT22;11784;49.818;8.632;2023-05-07T15:28:35;24.50;50.50
23231;DHT22;11784;49.818;8.632;2023-05-07T15:31:00;24.40;51.10
23231;DHT22;11784;49.818;8.632;2023-05-07T15:33:26;24.30;51.90